createdAt,value
2023-05-23T00:01:20.009Z,99993.94
2023-05-23T00:03:50.893Z,99998.06
2023-05-23T00:06:25.861Z,100000.88
2023-05-23T00:08:56.412Z,100001.72
2023-05-23T00:11:29.231Z,99989.69
2023-05-23T00:14:03.974Z,99993.97
2023-05-23T00:16:35.271Z,99985.72
2023-05-23T00:19:06.404Z,99973.50
2023-05-23T00:21:36.247Z,99980.34
2023-05-23T00:24:06.412Z,99974.31
2023-05-23T00:26:37.342Z,99976.59
2023-05-23T00:29:07.050Z,99976.94
2023-05-23T00:31:36.875Z,99980.19
2023-05-23T00:34:06.681Z,99984.81
2023-05-23T00:36:39.084Z,99986.28
2023-05-23T00:39:08.777Z,99984.38
2023-05-23T00:41:39.404Z,99981.84
2023-05-23T00:44:11.857Z,99983.06
2023-05-23T00:46:42.550Z,99979.09
2023-05-23T00:49:12.524Z,99988.25
2023-05-23T00:51:45.409Z,99979.94
2023-05-23T00:54:15.283Z,99984.72
2023-05-23T00:56:45.578Z,99989.56
2023-05-23T00:59:15.333Z,99980.06
2023-05-23T01:01:48.617Z,99979.41
2023-05-23T01:04:19.124Z,99980.69
2023-05-23T01:06:51.079Z,99980.50
2023-05-23T01:09:20.772Z,99985.50
2023-05-23T01:11:59.776Z,99986.88
2023-05-23T01:14:40.672Z,99986.34
2023-05-23T01:17:48.869Z,99988.00
2023-05-23T01:20:26.355Z,99996.06
2023-05-23T01:23:02.559Z,100000.03
2023-05-23T01:26:01.240Z,99990.13
2023-05-23T01:28:34.125Z,99987.19
2023-05-23T01:31:13.017Z,99989.50
2023-05-23T01:33:45.827Z,99983.19
2023-05-23T01:36:19.393Z,99989.66
2023-05-23T01:38:49.144Z,99990.25
2023-05-23T01:41:18.961Z,99984.56
2023-05-23T01:43:48.811Z,99986.72
2023-05-23T01:46:18.587Z,99985.25
2023-05-23T01:48:49.840Z,99988.78
2023-05-23T01:51:20.623Z,99983.72
2023-05-23T01:53:50.946Z,99987.19
2023-05-23T01:56:22.003Z,99988.00
2023-05-23T01:58:51.716Z,99980.06
2023-05-23T02:01:21.461Z,99977.09
2023-05-23T02:03:51.658Z,99977.28
2023-05-23T02:06:22.357Z,99976.25
2023-05-23T02:08:52.558Z,99972.56
2023-05-23T02:11:22.235Z,99973.19
2023-05-23T02:13:54.612Z,99972.19
2023-05-23T02:16:25.261Z,99970.72
2023-05-23T02:18:57.811Z,99969.88
2023-05-23T02:21:27.571Z,99972.66
2023-05-23T02:23:57.700Z,99976.91
2023-05-23T02:26:29.220Z,99967.22
2023-05-23T02:28:59.290Z,99972.19
2023-05-23T02:31:29.749Z,99967.94
2023-05-23T02:33:59.540Z,99966.94
2023-05-23T02:36:29.273Z,99959.31
2023-05-23T02:39:01.762Z,99950.28
2023-05-23T02:41:31.467Z,99952.09
2023-05-23T02:44:01.523Z,99952.50
2023-05-23T02:46:31.690Z,99947.34
2023-05-23T02:49:02.446Z,99948.31
2023-05-23T02:51:33.722Z,99946.00
2023-05-23T02:54:06.471Z,99947.75
2023-05-23T02:56:36.295Z,99943.06
2023-05-23T02:59:05.988Z,99942.03
2023-05-23T03:01:36.739Z,99945.66
2023-05-23T03:04:06.510Z,99942.25
2023-05-23T03:06:38.723Z,99937.03
2023-05-23T03:09:09.463Z,99936.19
2023-05-23T03:11:39.777Z,99943.56
2023-05-23T03:14:10.291Z,99939.13
2023-05-23T03:16:40.138Z,99922.75
2023-05-23T03:19:10.499Z,99922.78
2023-05-23T03:21:41.187Z,99933.09
2023-05-23T03:24:11.109Z,99927.66
2023-05-23T03:26:42.532Z,99924.19
2023-05-23T03:29:13.461Z,99911.97
2023-05-23T03:31:43.238Z,99920.69
2023-05-23T03:34:14.725Z,99920.22
2023-05-23T03:36:44.457Z,99922.75
2023-05-23T03:39:17.471Z,99923.78
2023-05-23T03:41:47.311Z,99917.56
2023-05-23T03:44:17.626Z,99922.59
2023-05-23T03:46:50.468Z,99916.72
2023-05-23T03:49:20.576Z,99913.78
2023-05-23T03:51:50.272Z,99910.66
2023-05-23T03:54:20.696Z,99917.03
2023-05-23T03:56:50.823Z,99910.16
2023-05-23T03:59:22.608Z,99914.09
2023-05-23T04:01:54.023Z,99917.78
2023-05-23T04:04:24.552Z,99910.69
2023-05-23T04:06:55.253Z,99909.84
2023-05-23T04:09:26.311Z,99910.84
2023-05-23T04:12:00.386Z,99908.09
2023-05-23T04:14:35.096Z,99911.38
2023-05-23T04:17:05.317Z,99906.13
2023-05-23T04:19:38.314Z,99908.66
2023-05-23T04:22:08.399Z,99908.59
2023-05-23T04:24:40.894Z,99906.13
2023-05-23T04:27:12.615Z,99904.00
2023-05-23T04:29:43.189Z,99907.69
2023-05-23T04:32:15.387Z,99898.97
2023-05-23T04:34:47.209Z,99896.63
2023-05-23T04:37:17.419Z,99892.31
2023-05-23T04:39:48.791Z,99895.19
2023-05-23T04:42:19.213Z,99897.25
2023-05-23T04:44:49.315Z,99889.06
2023-05-23T04:47:19.870Z,99891.66
2023-05-23T04:49:53.133Z,99886.44
2023-05-23T04:52:23.795Z,99880.22
2023-05-23T04:54:55.589Z,99882.94
2023-05-23T04:57:26.863Z,99880.06
2023-05-23T04:59:59.621Z,99878.34
2023-05-23T05:02:30.191Z,99877.09
2023-05-23T05:04:59.907Z,99872.19
2023-05-23T05:07:31.055Z,99864.69
2023-05-23T05:10:01.369Z,99872.19
2023-05-23T05:12:31.184Z,99875.44
2023-05-23T05:15:02.261Z,99873.25
2023-05-23T05:17:32.378Z,99864.41
2023-05-23T05:20:02.346Z,99865.22
2023-05-23T05:22:32.712Z,99863.03
2023-05-23T05:25:03.393Z,99858.34
2023-05-23T05:27:33.222Z,99857.72
2023-05-23T05:30:07.751Z,99855.31
2023-05-23T05:32:40.804Z,99855.56
2023-05-23T05:35:12.377Z,99849.31
2023-05-23T05:37:42.333Z,99851.44
2023-05-23T05:40:13.543Z,99845.56
2023-05-23T05:42:46.397Z,99851.13
2023-05-23T05:45:16.644Z,99842.44
2023-05-23T05:47:47.134Z,99843.63
2023-05-23T05:50:16.971Z,99839.50
2023-05-23T05:52:53.366Z,99836.13
2023-05-23T05:55:26.566Z,99837.72
2023-05-23T05:57:56.357Z,99836.44
2023-05-23T06:00:26.830Z,99836.66
2023-05-23T06:02:59.800Z,99830.81
2023-05-23T06:05:30.380Z,99834.84
2023-05-23T06:08:00.090Z,99843.56
2023-05-23T06:10:29.912Z,99834.63
2023-05-23T06:13:01.288Z,99833.31
2023-05-23T06:15:30.925Z,99825.69
2023-05-23T06:18:00.606Z,99815.97
2023-05-23T06:20:31.312Z,99821.22
2023-05-23T06:23:01.979Z,99815.66
2023-05-23T06:25:32.334Z,99818.09
2023-05-23T06:28:03.419Z,99817.59
2023-05-23T06:30:35.442Z,99819.06
2023-05-23T06:33:05.371Z,99818.56
2023-05-23T06:35:35.918Z,99823.81
2023-05-23T06:38:05.630Z,99822.75
2023-05-23T06:40:35.313Z,99824.03
2023-05-23T06:43:07.564Z,99822.38
2023-05-23T06:45:39.811Z,99823.22
2023-05-23T06:48:10.552Z,99830.22
2023-05-23T06:50:40.574Z,99829.63
2023-05-23T06:53:10.383Z,99831.88
2023-05-23T06:55:40.094Z,99819.47
2023-05-23T06:58:10.267Z,99825.84
2023-05-23T07:00:40.314Z,99824.19
2023-05-23T07:03:10.279Z,99826.25
2023-05-23T07:05:41.425Z,99832.00
2023-05-23T07:08:12.579Z,99828.53
2023-05-23T07:10:43.601Z,99826.66
2023-05-23T07:13:14.107Z,99829.13
2023-05-23T07:15:43.841Z,99825.81
2023-05-23T07:18:14.526Z,99815.44
2023-05-23T07:20:44.743Z,99825.19
2023-05-23T07:23:14.532Z,99822.06
2023-05-23T07:25:53.826Z,99821.41
2023-05-23T07:28:31.693Z,99816.03
2023-05-23T07:31:01.442Z,99817.91
2023-05-23T07:33:32.248Z,99821.19
2023-05-23T07:36:03.116Z,99821.84
2023-05-23T07:38:32.974Z,99823.50
2023-05-23T07:41:10.990Z,99816.41
2023-05-23T07:43:45.228Z,99818.22
2023-05-23T07:46:14.982Z,99822.44
2023-05-23T07:48:45.135Z,99824.72
2023-05-23T07:51:20.409Z,99821.41
2023-05-23T07:53:51.612Z,99827.53
2023-05-23T07:56:21.374Z,99828.97
2023-05-23T07:58:51.084Z,99829.44
2023-05-23T08:01:21.826Z,99829.59
2023-05-23T08:03:51.619Z,99834.63
2023-05-23T08:06:21.392Z,99829.91
2023-05-23T08:08:51.177Z,99835.06
2023-05-23T08:11:20.937Z,99831.88
2023-05-23T08:13:51.008Z,99831.78
2023-05-23T08:16:20.867Z,99833.19
2023-05-23T08:18:50.643Z,99833.97
2023-05-23T08:21:20.389Z,99840.41
2023-05-23T08:23:50.443Z,99834.75
2023-05-23T08:26:20.258Z,99834.72
2023-05-23T08:28:51.004Z,99839.25
2023-05-23T08:31:20.765Z,99846.09
2023-05-23T08:33:50.937Z,99844.22
2023-05-23T08:36:20.745Z,99843.78
2023-05-23T08:38:51.624Z,99841.88
2023-05-23T08:41:25.155Z,99849.13
2023-05-23T08:43:57.568Z,99842.09
2023-05-23T08:46:27.786Z,99851.34
2023-05-23T08:48:58.001Z,99848.44
2023-05-23T08:51:30.591Z,99845.72
2023-05-23T08:54:00.986Z,99847.19
2023-05-23T08:56:30.839Z,99850.69
2023-05-23T08:59:00.733Z,99862.72
2023-05-23T09:01:31.027Z,99857.09
2023-05-23T09:04:09.364Z,99853.13
2023-05-23T09:06:39.455Z,99856.84
2023-05-23T09:09:12.245Z,99850.81
2023-05-23T09:11:42.656Z,99861.38
2023-05-23T09:14:12.344Z,99861.84
2023-05-23T09:16:42.170Z,99862.44
2023-05-23T09:19:15.701Z,99857.44
2023-05-23T09:21:48.340Z,99868.88
2023-05-23T09:24:18.118Z,99864.28
2023-05-23T09:26:50.008Z,99868.47
2023-05-23T09:29:23.045Z,99866.78
2023-05-23T09:31:52.947Z,99872.97
2023-05-23T09:34:22.618Z,99871.72
2023-05-23T09:36:53.073Z,99875.66
2023-05-23T09:39:23.686Z,99878.59
2023-05-23T09:41:53.314Z,99875.25
2023-05-23T09:44:25.862Z,99877.53
2023-05-23T09:46:55.749Z,99880.25
2023-05-23T09:49:25.480Z,99882.72
2023-05-23T09:52:01.933Z,99879.84
2023-05-23T09:54:32.514Z,99879.41
2023-05-23T09:57:02.713Z,99883.75
2023-05-23T09:59:33.764Z,99883.53
2023-05-23T10:02:05.296Z,99890.63
2023-05-23T10:04:36.038Z,99887.69
2023-05-23T10:07:23.981Z,99885.03
2023-05-23T10:09:59.280Z,99887.91
2023-05-23T10:12:34.862Z,99889.06
2023-05-23T10:15:08.982Z,99889.00
2023-05-23T10:18:30.244Z,99880.31
2023-05-23T10:21:02.761Z,99893.53
2023-05-23T10:23:32.501Z,99893.69
2023-05-23T10:26:02.345Z,99891.84
2023-05-23T10:28:33.918Z,99899.25
2023-05-23T10:31:03.643Z,99903.41
2023-05-23T10:33:35.909Z,99907.16
2023-05-23T10:36:17.069Z,99906.84
2023-05-23T10:39:04.595Z,99923.03
2023-05-23T10:41:47.053Z,99924.53
2023-05-23T10:44:29.496Z,99930.81
2023-05-23T10:47:03.909Z,99932.47
2023-05-23T10:49:49.296Z,99926.88
2023-05-23T10:52:23.063Z,99928.16
2023-05-23T10:54:57.801Z,99944.31
2023-05-23T10:57:31.301Z,99953.63
2023-05-23T11:00:00.962Z,99948.47
2023-05-23T11:02:31.384Z,99942.63
2023-05-23T11:05:26.225Z,99950.91
2023-05-23T11:08:20.478Z,99955.50
2023-05-23T11:11:05.974Z,99959.66
2023-05-23T11:13:58.256Z,99963.59
2023-05-23T11:16:28.722Z,99962.94
2023-05-23T11:19:23.507Z,99974.63
2023-05-23T11:21:58.075Z,99981.50
2023-05-23T11:24:47.615Z,99985.38
2023-05-23T11:27:17.540Z,99990.78
2023-05-23T11:29:47.227Z,99992.47
2023-05-23T11:32:17.793Z,99993.50
2023-05-23T11:34:47.715Z,99999.53
2023-05-23T11:37:20.116Z,100009.50
2023-05-23T11:39:53.421Z,100012.22
2023-05-23T11:42:23.158Z,100011.16
2023-05-23T11:44:53.543Z,100022.78
2023-05-23T11:47:23.613Z,100023.22
2023-05-23T11:49:53.412Z,100019.28
2023-05-23T11:52:23.419Z,100030.31
2023-05-23T11:54:55.012Z,100032.16
2023-05-23T11:57:26.276Z,100051.91
2023-05-23T11:59:56.266Z,100055.88
2023-05-23T12:02:26.082Z,100064.41
2023-05-23T12:04:55.930Z,100073.53
2023-05-23T12:07:25.726Z,100073.72
2023-05-23T12:09:58.999Z,100079.59
2023-05-23T12:12:31.362Z,100084.53
2023-05-23T12:15:02.705Z,100091.00
2023-05-23T12:17:33.433Z,100087.25
2023-05-23T12:20:03.361Z,100091.81
2023-05-23T12:22:33.710Z,100101.59
2023-05-23T12:25:06.513Z,100107.22
2023-05-23T12:27:37.309Z,100109.69
2023-05-23T12:30:11.197Z,100120.94
2023-05-23T12:32:44.933Z,100129.06
2023-05-23T12:35:16.044Z,100131.34
2023-05-23T12:37:49.035Z,100130.28
2023-05-23T12:40:19.883Z,100141.09
2023-05-23T12:42:57.403Z,100138.19
2023-05-23T12:45:38.240Z,100145.91
2023-05-23T12:48:11.064Z,100143.81
2023-05-23T12:50:40.868Z,100149.84
2023-05-23T12:53:10.565Z,100157.31
2023-05-23T12:55:41.465Z,100159.59
2023-05-23T12:58:11.407Z,100164.81
2023-05-23T13:00:41.177Z,100162.31
2023-05-23T13:03:12.125Z,100177.69
2023-05-23T13:05:42.192Z,100176.63
2023-05-23T13:08:13.834Z,100172.06
2023-05-23T13:10:46.420Z,100169.16
2023-05-23T13:13:16.826Z,100170.84
2023-05-23T13:15:48.130Z,100163.75
2023-05-23T13:18:19.639Z,100162.31
2023-05-23T13:20:49.331Z,100161.50
2023-05-23T13:23:19.042Z,100167.31
2023-05-23T13:25:48.821Z,100171.66
2023-05-23T13:28:18.825Z,100178.75
2023-05-23T13:30:48.915Z,100181.44
2023-05-23T13:33:19.702Z,100179.19
2023-05-23T13:35:50.815Z,100185.41
2023-05-23T13:38:21.272Z,100184.78
2023-05-23T13:40:53.229Z,100177.91
2023-05-23T13:43:23.892Z,100179.59
2023-05-23T13:45:54.235Z,100178.31
2023-05-23T13:48:23.932Z,100179.97
2023-05-23T13:50:53.708Z,100181.03
2023-05-23T13:53:23.526Z,100183.31
2023-05-23T13:55:53.327Z,100186.00
2023-05-23T13:58:23.853Z,100181.44
2023-05-23T14:00:54.212Z,100181.44
2023-05-23T14:03:26.732Z,100183.09
2023-05-23T14:05:56.777Z,100194.31
2023-05-23T14:08:26.485Z,100188.94
2023-05-23T14:10:56.607Z,100195.97
2023-05-23T14:13:26.305Z,100181.25
2023-05-23T14:15:56.078Z,100190.19
2023-05-23T14:18:25.832Z,100189.56
2023-05-23T14:20:55.536Z,100197.88
2023-05-23T14:23:25.262Z,100194.75
2023-05-23T14:25:55.012Z,100192.28
2023-05-23T14:28:24.668Z,100192.28
2023-05-23T14:30:54.453Z,100195.81
2023-05-23T14:33:24.504Z,100196.00
2023-05-23T14:35:54.399Z,100189.56
2023-05-23T14:38:24.197Z,100191.44
2023-05-23T14:40:55.275Z,100192.69
2023-05-23T14:43:24.973Z,100197.91
2023-05-23T14:45:54.705Z,100201.44
2023-05-23T14:48:25.138Z,100194.56
2023-05-23T14:50:55.242Z,100194.34
2023-05-23T14:53:25.592Z,100192.28
2023-05-23T14:55:55.899Z,100191.84
2023-05-23T14:58:28.146Z,100184.41
2023-05-23T15:00:58.944Z,100185.41
2023-05-23T15:03:29.789Z,100191.44
2023-05-23T15:05:59.507Z,100186.88
2023-05-23T15:08:29.323Z,100186.25
2023-05-23T15:11:00.052Z,100195.41
2023-05-23T15:13:30.224Z,100201.22
2023-05-23T15:16:00.410Z,100196.03
2023-05-23T15:18:39.921Z,100190.63
2023-05-23T15:21:10.817Z,100194.56
2023-05-23T15:23:40.511Z,100194.16
2023-05-23T15:26:10.159Z,100186.06
2023-05-23T15:28:39.825Z,100181.69
2023-05-23T15:31:09.552Z,100178.34
2023-05-23T15:33:39.280Z,100179.81
2023-05-23T15:36:09.647Z,100189.16
2023-05-23T15:38:39.299Z,100197.91
2023-05-23T15:41:09.027Z,100190.19
2023-05-23T15:43:38.907Z,100196.84
2023-05-23T15:46:11.426Z,100203.50
2023-05-23T15:48:41.166Z,100201.22
2023-05-23T15:51:10.879Z,100205.19
2023-05-23T15:53:58.857Z,100204.75
2023-05-23T15:56:30.099Z,100209.75
2023-05-23T15:58:59.778Z,100202.69
2023-05-23T16:01:29.837Z,100209.09
2023-05-23T16:03:59.718Z,100211.19
2023-05-23T16:06:29.849Z,100212.84
2023-05-23T16:09:00.127Z,100207.66
2023-05-23T16:11:29.858Z,100210.38
2023-05-23T16:13:59.920Z,100218.88
2023-05-23T16:16:29.685Z,100218.66
2023-05-23T16:18:59.482Z,100222.22
2023-05-23T16:21:29.234Z,100216.81
2023-05-23T16:23:58.968Z,100218.88
2023-05-23T16:26:29.748Z,100217.00
2023-05-23T16:28:59.463Z,100219.50
2023-05-23T16:31:30.379Z,100224.28
2023-05-23T16:34:00.832Z,100227.41
2023-05-23T16:36:34.223Z,100225.75
2023-05-23T16:39:04.888Z,100224.06
2023-05-23T16:41:37.168Z,100226.56
2023-05-23T16:44:07.347Z,100229.28
2023-05-23T16:46:37.211Z,100232.56
2023-05-23T16:49:06.912Z,100230.94
2023-05-23T16:51:36.611Z,100233.00
2023-05-23T16:54:06.337Z,100227.63
2023-05-23T16:56:36.124Z,100225.53
2023-05-23T16:59:06.269Z,100226.75
2023-05-23T17:01:38.764Z,100221.56
2023-05-23T17:04:09.535Z,100217.00
2023-05-23T17:06:39.658Z,100215.13
2023-05-23T17:09:10.321Z,100220.53
2023-05-23T17:11:40.035Z,100217.84
2023-05-23T17:14:09.728Z,100219.50
2023-05-23T17:16:39.569Z,100221.34
2023-05-23T17:19:10.070Z,100215.56
2023-05-23T17:21:39.856Z,100214.53
2023-05-23T17:24:09.678Z,100217.44
2023-05-23T17:26:39.420Z,100217.22
2023-05-23T17:29:09.161Z,100223.84
2023-05-23T17:31:38.913Z,100223.84
2023-05-23T17:34:10.086Z,100218.88
2023-05-23T17:36:40.000Z,100223.63
2023-05-23T17:39:11.234Z,100230.09
2023-05-23T17:41:41.359Z,100228.63
2023-05-23T17:44:11.453Z,100224.28
2023-05-23T17:46:42.473Z,100234.25
2023-05-23T17:49:12.293Z,100227.81
2023-05-23T17:51:42.105Z,100228.41
2023-05-23T17:54:11.825Z,100224.06
2023-05-23T17:56:45.844Z,100225.31
2023-05-23T17:59:19.252Z,100222.41
2023-05-23T18:01:49.378Z,100232.16
2023-05-23T18:04:19.140Z,100244.44
2023-05-23T18:06:49.360Z,100230.50
2023-05-23T18:09:19.142Z,100234.66
2023-05-23T18:11:48.876Z,100231.13
2023-05-23T18:14:20.105Z,100232.59
2023-05-23T18:16:49.924Z,100239.22
2023-05-23T18:19:21.109Z,100241.53
2023-05-23T18:21:50.845Z,100236.53
2023-05-23T18:24:24.939Z,100241.94
2023-05-23T18:26:54.687Z,100236.53
2023-05-23T18:29:24.789Z,100238.81
2023-05-23T18:31:54.489Z,100243.19
2023-05-23T18:34:25.117Z,100239.63
2023-05-23T18:36:56.289Z,100239.63
2023-05-23T18:39:26.097Z,100238.81
2023-05-23T18:41:55.812Z,100244.84
2023-05-23T18:44:25.942Z,100239.66
2023-05-23T18:46:55.701Z,100248.59
2023-05-23T18:49:25.463Z,100248.75
2023-05-23T18:51:55.985Z,100250.63
2023-05-23T18:54:25.692Z,100252.72
2023-05-23T18:56:55.815Z,100254.38
2023-05-23T18:59:25.633Z,100256.69
2023-05-23T19:01:55.473Z,100252.28
2023-05-23T19:04:25.800Z,100256.03
2023-05-23T19:06:55.950Z,100250.19
2023-05-23T19:09:25.619Z,100258.13
2023-05-23T19:11:55.345Z,100260.00
2023-05-23T19:14:25.599Z,100257.88
2023-05-23T19:16:56.149Z,100252.06
2023-05-23T19:19:27.325Z,100255.38
2023-05-23T19:21:58.346Z,100260.53
2023-05-23T19:24:28.083Z,100268.09
2023-05-23T19:26:57.916Z,100270.56
2023-05-23T19:29:28.524Z,100264.09
2023-05-23T19:31:58.312Z,100269.69
2023-05-23T19:34:29.659Z,100268.47
2023-05-23T19:36:59.577Z,100271.16
2023-05-23T19:39:29.347Z,100269.06
2023-05-23T19:42:02.174Z,100265.31
2023-05-23T19:44:31.958Z,100275.50
2023-05-23T19:47:02.016Z,100270.50
2023-05-23T19:49:31.793Z,100282.78
2023-05-23T19:52:01.502Z,100275.72
2023-05-23T19:54:31.338Z,100285.66
2023-05-23T19:57:01.180Z,100281.72
2023-05-23T19:59:30.905Z,100273.81
2023-05-23T20:02:00.730Z,100275.69
2023-05-23T20:04:31.416Z,100281.31
2023-05-23T20:07:02.004Z,100278.38
2023-05-23T20:09:31.770Z,100274.41
2023-05-23T20:12:01.555Z,100272.75
2023-05-23T20:14:32.861Z,100282.50
2023-05-23T20:17:02.794Z,100276.50
2023-05-23T20:19:32.782Z,100280.88
2023-05-23T20:22:02.635Z,100271.50
2023-05-23T20:24:33.559Z,100276.91
2023-05-23T20:27:03.355Z,100277.94
2023-05-23T20:29:36.112Z,100277.13
2023-05-23T20:32:05.884Z,100272.16
2023-05-23T20:34:36.327Z,100275.06
2023-05-23T20:37:06.814Z,100275.47
2023-05-23T20:39:36.520Z,100266.75
2023-05-23T20:42:07.580Z,100271.53
2023-05-23T20:44:39.457Z,100271.72
2023-05-23T20:47:11.412Z,100275.06
2023-05-23T20:49:44.898Z,100274.44
2023-05-23T20:52:14.606Z,100273.81
2023-05-23T20:54:44.317Z,100273.59
2023-05-23T20:57:14.494Z,100272.13
2023-05-23T20:59:44.194Z,100279.59
2023-05-23T21:02:15.556Z,100271.50
2023-05-23T21:04:48.084Z,100274.78
2023-05-23T21:07:18.678Z,100267.75
2023-05-23T21:09:49.325Z,100264.63
2023-05-23T21:12:18.997Z,100269.59
2023-05-23T21:14:48.660Z,100269.78
2023-05-23T21:17:18.501Z,100266.06
2023-05-23T21:19:48.556Z,100274.97
2023-05-23T21:22:18.968Z,100269.59
2023-05-23T21:24:48.717Z,100282.84
2023-05-23T21:27:18.841Z,100279.97
2023-05-23T21:29:48.762Z,100284.97
2023-05-23T21:32:18.516Z,100279.97
2023-05-23T21:34:48.277Z,100281.22
2023-05-23T21:37:18.368Z,100286.44
2023-05-23T21:39:51.921Z,100289.94
2023-05-23T21:42:22.782Z,100289.34
2023-05-23T21:44:53.972Z,100301.78
2023-05-23T21:47:25.539Z,100294.28
2023-05-23T21:49:55.243Z,100300.13
2023-05-23T21:52:25.968Z,100304.88
2023-05-23T21:54:55.644Z,100303.25
2023-05-23T21:57:25.346Z,100312.97
2023-05-23T21:59:55.061Z,100312.19
2023-05-23T22:02:25.814Z,100307.41
2023-05-23T22:04:55.895Z,100311.97
2023-05-23T22:07:27.359Z,100313.63
2023-05-23T22:09:57.880Z,100312.56
2023-05-23T22:12:27.716Z,100315.47
2023-05-23T22:14:58.741Z,100322.53
2023-05-23T22:17:28.494Z,100316.31
2023-05-23T22:19:59.590Z,100334.59
2023-05-23T22:22:29.433Z,100332.31
2023-05-23T22:25:02.027Z,100330.25
2023-05-23T22:27:31.755Z,100351.84
2023-05-23T22:30:01.617Z,100357.28
2023-05-23T22:32:31.462Z,100358.72
2023-05-23T22:35:04.523Z,100355.81
2023-05-23T22:37:35.205Z,100360.00
2023-05-23T22:40:08.110Z,100362.34
2023-05-23T22:42:38.082Z,100374.41
2023-05-23T22:45:09.413Z,100376.94
2023-05-23T22:47:40.158Z,100375.28
2023-05-23T22:50:11.127Z,100376.94
2023-05-23T22:52:41.940Z,100383.38
2023-05-23T22:55:13.284Z,100386.50
2023-05-23T22:57:43.147Z,100390.25
2023-05-23T23:00:13.870Z,100383.63
2023-05-23T23:02:47.169Z,100382.16
2023-05-23T23:05:16.987Z,100386.72
2023-05-23T23:07:47.945Z,100386.72
2023-05-23T23:10:17.838Z,100386.13
2023-05-23T23:12:47.809Z,100384.25
2023-05-23T23:15:17.656Z,100380.06
2023-05-23T23:17:47.504Z,100385.91
2023-05-23T23:20:18.816Z,100392.34
2023-05-23T23:22:48.709Z,100396.31
2023-05-23T23:25:20.376Z,100391.31
2023-05-23T23:27:50.128Z,100385.91
2023-05-23T23:30:19.882Z,100390.25
2023-05-23T23:32:49.682Z,100392.56
2023-05-23T23:35:19.767Z,100399.22
2023-05-23T23:37:49.453Z,100401.69
2023-05-23T23:40:21.485Z,100400.88
2023-05-23T23:42:51.916Z,100406.28
2023-05-23T23:45:21.672Z,100410.41
2023-05-23T23:47:51.380Z,100411.91
2023-05-23T23:50:21.539Z,100407.94
2023-05-23T23:52:51.553Z,100401.91
2023-05-23T23:55:22.578Z,100415.22
2023-05-23T23:57:55.531Z,100410.22
